KMUI/MUI METAR and TAF weather

Enter ICAO airport designator
Station Type Date Time Source
KMUI METAR 2019/06/18 12:17 UTC NOAA

KMUI 181217Z 00000KT 3/4SM BR OVC002 20/20 A2994 RMK AO2A SLP139


Station Type Date Time Source
KMUI Decoded METAR 2019/06/18 12:17 UTC NOAA

Muir Army Air Field / Indiantown, PA, United States (KMUI) 40-26N 076-34W
Jun 18, 2019 - 08:17 AM EDT / 2019.06.18 1217 UTC
Wind: Calm:0
Visibility: 3/4 mile(s):0
Sky conditions: overcast
Weather: mist
Temperature: 68 F (20 C)
Dew Point: 68 F (20 C)
Relative Humidity: 100%
Pressure (altimeter): 29.94 in. Hg (1013 hPa)
ob: KMUI 181217Z 00000KT 3/4SM BR OVC002 20/20 A2994 RMK AO2A SLP139
cycle: 12

Station Type Date Time Source
KMUI TAF 2019/06/18 12:54 UTC NOAA

TAF
AMD KMUI 181247Z 1812/1917 VRB06KT 1200 BR OVC002 QNH2994INS
BECMG 1812/1813 VRB06KT 1600 -SHRA OVC003 QNH2990INS
TEMPO 1813/1815 08009KT 1200 -TSRA OVC003CB
BECMG 1814/1815 08006KT 4800 -SHRA OVC007 QNH2988INS
TEMPO 1815/1817 08009KT 3200 -TSRA OVC007CB
BECMG 1816/1817 08006KT 9999 NSW SCT008 BKN025 QNH2985INS
BECMG 1820/1821 03005KT 4800 -RA BKN010 OVC030 QNH2982INS
BECMG 1823/1824 20006KT 9999 NSW SCT030 QNH2977INS
BECMG 1904/1905 13007KT 6000 -RA BKN030 QNH2973INS TX25/1819Z TN20/1812Z

Example: see airport list